Time;durP1;ratioP1;P1;durP2;ratioP2;P2;SDS_P1;SDS_P2;PMS_P1;PMS_P2;Temp;Humidity;BMP_temperature;BMP_pressure;BME280_temperature;BME280_humidity;BME280_pressure;Samples;Min_cycle;Max_cycle;Signal;HPM_P1;HPM_P2
2021/12/02 00:01:38;;;;;;;0.50;0.40;;;;;;;-145.69;100.00;71257.13;5113344;28;20205;-76
2021/12/02 00:04:06;;;;;;;0.40;0.40;;;;;;;-145.69;100.00;71263.09;5113425;28;20229;-77
2021/12/02 00:06:33;;;;;;;0.50;0.50;;;;;;;-145.69;100.00;71267.09;5113138;28;20193;-77
2021/12/02 00:08:59;;;;;;;0.70;0.60;;;;;;;-145.69;100.00;71275.03;5113462;28;20273;-77
2021/12/02 00:11:26;;;;;;;1.50;0.90;;;;;;;-145.69;100.00;71286.97;5113210;28;20197;-77
2021/12/02 00:13:58;;;;;;;0.80;0.80;;;;;;;-145.69;100.00;71288.97;5113337;28;20648;-77
2021/12/02 00:16:29;;;;;;;1.13;0.90;;;;;;;-145.69;100.00;71302.91;5113184;28;20660;-77
2021/12/02 00:21:50;;;;;;;1.33;0.70;;;;;;;-145.69;100.00;71330.75;5112948;28;20278;-76
2021/12/02 00:24:24;;;;;;;1.17;0.90;;;;;;;-145.69;100.00;71330.75;5113043;28;20659;-76
2021/12/02 00:26:54;;;;;;;3.20;0.93;;;;;;;-145.69;100.00;71340.72;5113119;28;20202;-76
2021/12/02 00:29:23;;;;;;;1.17;1.00;;;;;;;-145.69;100.00;71338.72;5113051;28;20209;-76
2021/12/02 00:31:51;;;;;;;2.20;1.40;;;;;;;-145.69;100.00;71338.72;5112635;28;20688;-76
2021/12/02 00:34:20;;;;;;;1.20;1.10;;;;;;;-145.69;100.00;71336.72;5112804;28;20225;-76
2021/12/02 00:36:48;;;;;;;1.23;0.97;;;;;;;-145.69;100.00;71338.72;5112803;28;20224;-76
2021/12/02 00:39:19;;;;;;;1.00;0.90;;;;;;;-145.69;100.00;71336.72;5113072;28;20197;-76
2021/12/02 00:41:48;;;;;;;4.93;1.00;;;;;;;-145.69;100.00;71342.69;5113427;28;20201;-76
2021/12/02 00:44:19;;;;;;;3.17;0.80;;;;;;;-145.69;100.00;71348.66;5116860;28;20228;-76
2021/12/02 00:46:46;;;;;;;0.70;0.70;;;;;;;-145.69;100.00;71352.66;5116616;28;20659;-76
2021/12/02 00:49:15;;;;;;;1.77;0.90;;;;;;;-145.69;100.00;71360.59;5116778;28;20197;-76
2021/12/02 00:51:47;;;;;;;1.17;0.77;;;;;;;-145.69;100.00;71356.63;5116548;28;20289;-76
2021/12/02 00:54:14;;;;;;;2.77;0.90;;;;;;;-145.69;100.00;71374.53;5116468;28;20198;-76
2021/12/02 00:56:42;;;;;;;2.50;1.00;;;;;;;-145.69;100.00;71378.50;5116612;28;20564;-76
2021/12/02 00:59:09;;;;;;;1.43;1.17;;;;;;;-145.69;100.00;71388.47;5116423;28;20204;-76
2021/12/02 01:01:40;;;;;;;1.10;0.80;;;;;;;-145.69;100.00;71390.47;5116625;28;20193;-76
2021/12/02 01:04:10;;;;;;;1.20;0.80;;;;;;;-145.69;100.00;71390.47;5116468;28;20225;-76
2021/12/02 01:06:39;;;;;;;0.80;0.80;;;;;;;-145.69;100.00;71402.41;5116171;28;20652;-75
2021/12/02 01:09:10;;;;;;;0.87;0.87;;;;;;;-145.69;100.00;71402.41;5116167;28;20203;-76
2021/12/02 01:11:36;;;;;;;1.37;1.10;;;;;;;-145.69;100.00;71402.41;5116366;28;20559;-76
2021/12/02 01:14:03;;;;;;;1.43;0.93;;;;;;;-145.69;100.00;71400.41;5116472;27;20209;-76
2021/12/02 01:16:31;;;;;;;2.53;1.40;;;;;;;-145.69;100.00;71400.41;5134706;27;20597;-75
2021/12/02 01:18:57;;;;;;;1.53;1.10;;;;;;;-145.69;100.00;71390.47;5136769;27;20196;-76
2021/12/02 01:21:30;;;;;;;1.90;0.97;;;;;;;-145.69;100.00;71390.47;5135606;27;20233;-76
2021/12/02 01:24:02;;;;;;;4.47;1.20;;;;;;;-145.69;100.00;71392.44;5136817;27;20227;-76
2021/12/02 01:26:31;;;;;;;2.57;1.30;;;;;;;-145.69;100.00;71394.44;5136915;27;20244;-76
2021/12/02 01:28:59;;;;;;;1.20;1.10;;;;;;;-145.69;100.00;71388.47;5136580;27;20199;-76
2021/12/02 01:31:30;;;;;;;1.97;1.00;;;;;;;-145.69;100.00;71376.53;5118681;27;20201;-76
2021/12/02 01:33:57;;;;;;;1.57;1.10;;;;;;;-145.69;100.00;71380.50;5135003;27;20208;-76
2021/12/02 01:36:25;;;;;;;1.30;1.03;;;;;;;-145.69;100.00;71366.56;5136401;27;20731;-75
2021/12/02 01:38:53;;;;;;;1.37;1.10;;;;;;;-145.69;100.00;71382.50;5136361;27;20201;-76
2021/12/02 01:41:19;;;;;;;1.47;1.00;;;;;;;-145.69;100.00;71386.47;5136277;27;20200;-76
2021/12/02 01:43:50;;;;;;;1.10;0.90;;;;;;;-145.69;100.00;71392.44;5136216;27;20231;-76
2021/12/02 01:46:18;;;;;;;0.93;0.90;;;;;;;-145.69;100.00;71392.44;5136204;27;20241;-76
2021/12/02 01:48:51;;;;;;;1.70;1.00;;;;;;;-145.69;100.00;71390.47;5136314;27;20200;-75
2021/12/02 01:51:20;;;;;;;1.30;0.77;;;;;;;-145.69;100.00;71388.47;5136133;27;20196;-75
2021/12/02 01:53:50;;;;;;;1.20;0.80;;;;;;;-145.69;100.00;71386.47;5135389;27;20288;-76
2021/12/02 01:56:19;;;;;;;1.53;1.00;;;;;;;-145.69;100.00;71382.50;5135940;27;20196;-76
2021/12/02 01:58:49;;;;;;;1.10;0.90;;;;;;;-145.69;100.00;71370.56;5135685;27;20232;-76
2021/12/02 02:01:21;;;;;;;1.17;1.03;;;;;;;-145.69;100.00;71366.56;5135708;27;20199;-76
2021/12/02 02:03:54;;;;;;;1.10;0.90;;;;;;;-145.69;100.00;71374.53;5135893;27;20225;-76
2021/12/02 02:06:30;;;;;;;1.47;1.00;;;;;;;-145.69;100.00;71378.50;5135822;27;20200;-76
2021/12/02 02:08:58;;;;;;;1.83;1.10;;;;;;;-145.69;100.00;71380.50;5135793;27;20228;-76
2021/12/02 02:11:29;;;;;;;1.70;1.10;;;;;;;-145.69;100.00;71386.47;5135361;27;20201;-75
2021/12/02 02:13:59;;;;;;;1.13;1.03;;;;;;;-145.69;100.00;71388.47;5135703;27;20204;-76
2021/12/02 02:16:36;;;;;;;1.27;1.10;;;;;;;-145.69;100.00;71392.44;5135452;27;20284;-76
2021/12/02 02:19:03;;;;;;;1.90;1.10;;;;;;;-145.69;100.00;71386.47;5135183;27;20247;-76
2021/12/02 02:21:35;;;;;;;1.97;1.40;;;;;;;-145.69;100.00;71384.47;5135303;27;20224;-76
2021/12/02 02:24:07;;;;;;;2.20;1.17;;;;;;;-145.69;100.00;71376.53;5135292;27;20307;-76
2021/12/02 02:26:35;;;;;;;1.00;0.90;;;;;;;-145.69;100.00;71380.50;5135223;27;20236;-76
2021/12/02 02:29:04;;;;;;;1.80;1.00;;;;;;;-145.69;100.00;71378.50;5135348;27;20207;-76
2021/12/02 02:31:33;;;;;;;1.40;0.97;;;;;;;-145.69;100.00;71384.47;5135279;27;20219;-76
2021/12/02 02:34:01;;;;;;;1.90;0.90;;;;;;;-145.69;100.00;71374.53;5135163;27;20251;-76
2021/12/02 02:36:30;;;;;;;2.50;1.00;;;;;;;-145.69;100.00;71370.56;5135251;27;20220;-76
2021/12/02 02:38:59;;;;;;;3.10;0.90;;;;;;;-145.69;100.00;71370.56;5135206;27;20296;-75
2021/12/02 02:41:28;;;;;;;1.53;0.80;;;;;;;-145.69;100.00;71360.59;5135087;27;20203;-76
2021/12/02 02:43:57;;;;;;;4.00;0.70;;;;;;;-145.69;100.00;71352.66;5134995;27;20200;-75
2021/12/02 02:46:25;;;;;;;3.27;0.80;;;;;;;-145.69;100.00;71354.63;5134855;27;20659;-75
2021/12/02 02:48:57;;;;;;;1.67;0.70;;;;;;;-145.69;100.00;71364.59;5134783;27;20229;-74
2021/12/02 02:51:24;;;;;;;4.30;0.90;;;;;;;-145.69;100.00;71368.56;5134621;27;20291;-75
2021/12/02 02:53:54;;;;;;;1.70;0.80;;;;;;;-145.69;100.00;71370.56;5134690;27;20685;-75
2021/12/02 02:56:30;;;;;;;1.50;0.80;;;;;;;-145.69;100.00;71372.53;5134640;27;20197;-75
2021/12/02 02:59:05;;;;;;;1.37;0.60;;;;;;;-145.69;100.00;71366.56;5134650;27;20207;-75
2021/12/02 03:01:47;;;;;;;0.63;0.63;;;;;;;-145.69;100.00;71378.50;5134594;27;20200;-75
2021/12/02 03:04:31;;;;;;;1.00;0.80;;;;;;;-145.69;100.00;71380.50;5134418;27;20690;-75
2021/12/02 03:07:01;;;;;;;0.83;0.77;;;;;;;-145.69;100.00;71382.50;5134633;27;20197;-75
2021/12/02 03:09:54;;;;;;;1.07;0.90;;;;;;;-145.69;100.00;71386.47;5134467;27;20673;-75
2021/12/02 03:12:27;;;;;;;3.23;0.80;;;;;;;-145.69;100.00;71390.47;5134511;27;20197;-75
2021/12/02 03:17:39;;;;;;;1.60;1.07;;;;;;;-145.69;100.00;71404.38;5082234;28;20190;-75
2021/12/02 03:20:09;;;;;;;1.10;1.00;;;;;;;-145.69;100.00;71406.38;5113715;28;20240;-75
2021/12/02 03:22:37;;;;;;;0.97;0.90;;;;;;;-145.69;100.00;71402.41;5113611;28;20652;-75
2021/12/02 03:25:06;;;;;;;1.40;1.07;;;;;;;-145.69;100.00;71406.38;5113757;28;20233;-75
2021/12/02 03:27:34;;;;;;;1.20;1.00;;;;;;;-145.69;100.00;71406.38;5113708;28;20201;-75
2021/12/02 03:30:01;;;;;;;0.87;0.83;;;;;;;-145.69;100.00;71406.38;5113691;28;20598;-75
2021/12/02 03:32:27;;;;;;;2.70;0.97;;;;;;;-145.69;100.00;71412.34;5113542;28;20208;-75
2021/12/02 03:34:54;;;;;;;2.67;1.30;;;;;;;-145.69;100.00;71414.34;5113380;28;20686;-75
2021/12/02 03:37:20;;;;;;;5.63;1.00;;;;;;;-145.69;100.00;71414.34;5113673;28;20205;-75
2021/12/02 03:39:47;;;;;;;1.30;1.17;;;;;;;-145.69;100.00;71418.31;5113451;28;20197;-75
2021/12/02 03:42:14;;;;;;;1.27;1.17;;;;;;;-145.69;100.00;71430.25;5113513;28;20254;-75
2021/12/02 03:44:42;;;;;;;2.77;1.03;;;;;;;-145.69;100.00;71440.19;5113339;28;20225;-75
2021/12/02 03:47:09;;;;;;;1.00;0.90;;;;;;;-145.69;100.00;71462.09;5113244;28;20204;-75
2021/12/02 03:49:36;;;;;;;1.30;0.80;;;;;;;-145.69;100.00;71458.09;5113308;28;20204;-75
2021/12/02 03:52:02;;;;;;;1.53;0.80;;;;;;;-145.69;100.00;71460.09;5113335;28;20284;-75
2021/12/02 03:54:29;;;;;;;2.27;1.10;;;;;;;-145.69;100.00;71462.09;5113558;28;20201;-75
2021/12/02 03:56:55;;;;;;;2.10;1.50;;;;;;;-145.69;100.00;71460.09;5113307;28;20205;-75
2021/12/02 03:59:22;;;;;;;1.23;1.10;;;;;;;-145.69;100.00;71456.13;5113294;28;20201;-75
2021/12/02 04:01:50;;;;;;;2.73;1.47;;;;;;;-145.69;100.00;71446.16;5113141;28;20193;-75
2021/12/02 04:04:16;;;;;;;8.60;1.40;;;;;;;-145.69;100.00;71446.16;5113071;28;20201;-75
2021/12/02 04:06:43;;;;;;;3.60;1.13;;;;;;;-145.69;100.00;71442.19;5113340;28;20208;-75
2021/12/02 04:09:13;;;;;;;1.90;1.03;;;;;;;-145.69;100.00;71432.25;5113353;28;20197;-75
2021/12/02 04:11:43;;;;;;;1.50;1.30;;;;;;;-145.69;100.00;71434.22;5113009;28;20288;-75
2021/12/02 04:14:19;;;;;;;1.27;1.00;;;;;;;-145.69;100.00;71434.22;5113084;28;20200;-75
2021/12/02 04:16:53;;;;;;;4.43;1.30;;;;;;;-145.69;100.00;71442.19;5113739;28;20280;-75
2021/12/02 04:19:22;;;;;;;3.73;1.30;;;;;;;-145.69;100.00;71432.25;5117412;28;20262;-75
2021/12/02 04:21:49;;;;;;;1.90;1.30;;;;;;;-145.69;100.00;71438.22;5117070;28;20288;-75
2021/12/02 04:24:15;;;;;;;2.73;1.40;;;;;;;-145.69;100.00;71440.19;5117031;28;20209;-75
2021/12/02 04:26:43;;;;;;;2.47;1.60;;;;;;;-145.69;100.00;71434.22;5116938;28;20251;-75
2021/12/02 04:29:10;;;;;;;6.37;1.30;;;;;;;-145.69;100.00;71434.22;5117234;28;20270;-75
2021/12/02 04:31:37;;;;;;;1.87;1.10;;;;;;;-145.69;100.00;71440.19;5117040;28;20197;-75
2021/12/02 04:34:03;;;;;;;2.17;0.97;;;;;;;-145.69;100.00;71460.09;5117040;28;20197;-75
2021/12/02 04:36:31;;;;;;;1.00;0.90;;;;;;;-145.69;100.00;71482.00;5116812;28;20208;-75
2021/12/02 04:39:00;;;;;;;1.47;1.10;;;;;;;-145.69;100.00;71489.94;5116803;28;20197;-75
2021/12/02 04:41:27;;;;;;;2.70;1.10;;;;;;;-145.69;100.00;71501.88;5116425;28;20246;-75
2021/12/02 04:43:53;;;;;;;3.67;1.20;;;;;;;-145.69;100.00;71499.91;5116898;28;20201;-75
2021/12/02 04:46:20;;;;;;;1.10;0.93;;;;;;;-145.69;100.00;71513.81;5116925;28;20229;-75
2021/12/02 04:48:46;;;;;;;2.70;0.90;;;;;;;-145.69;100.00;71517.81;5116777;28;20200;-75
2021/12/02 04:51:13;;;;;;;4.40;1.10;;;;;;;-145.69;100.00;71509.84;5116595;28;20194;-74
2021/12/02 04:53:41;;;;;;;1.27;1.00;;;;;;;-145.69;100.00;71499.91;5116459;28;20567;-75
2021/12/02 04:56:07;;;;;;;2.50;1.37;;;;;;;-145.69;100.00;71493.94;5116581;28;20200;-75
2021/12/02 04:58:34;;;;;;;2.03;1.30;;;;;;;-145.69;100.00;71485.97;5116514;28;20201;-75
2021/12/02 05:01:00;;;;;;;1.20;1.10;;;;;;;-145.69;100.00;71485.97;5116356;28;20644;-75
2021/12/02 05:03:27;;;;;;;3.93;1.10;;;;;;;-145.69;100.00;71493.94;5116482;28;20204;-74
2021/12/02 05:05:53;;;;;;;3.27;1.10;;;;;;;-145.69;100.00;71497.91;5116313;28;20599;-74
2021/12/02 05:08:20;;;;;;;0.90;0.90;;;;;;;-145.69;100.00;71499.91;5116145;28;20274;-75
2021/12/02 05:10:48;;;;;;;3.87;1.13;;;;;;;-145.69;100.00;71511.84;5116431;28;20201;-75
2021/12/02 05:13:14;;;;;;;1.80;1.20;;;;;;;-145.69;100.00;71505.88;5118700;27;20563;-74
2021/12/02 05:15:41;;;;;;;2.27;1.07;;;;;;;-145.69;100.00;71501.88;5116205;28;20205;-74
2021/12/02 05:18:07;;;;;;;6.20;1.47;;;;;;;-145.69;100.00;71499.91;5116173;28;20197;-74
2021/12/02 05:20:35;;;;;;;2.30;1.33;;;;;;;-145.69;100.00;71482.00;5115722;28;20896;-74
2021/12/02 05:23:01;;;;;;;2.10;1.27;;;;;;;-145.69;100.00;71487.97;5115857;28;20659;-74
2021/12/02 05:25:28;;;;;;;1.83;1.20;;;;;;;-145.69;100.00;71487.97;5115950;28;20221;-75
2021/12/02 05:27:55;;;;;;;3.90;1.40;;;;;;;-145.69;100.00;71480.00;5115645;28;20205;-75
2021/12/02 05:30:22;;;;;;;2.53;1.10;;;;;;;-145.69;100.00;71470.06;5115211;28;20197;-74
2021/12/02 05:32:48;;;;;;;2.67;1.40;;;;;;;-145.69;100.00;71460.09;5115784;28;20198;-74
2021/12/02 05:35:15;;;;;;;3.33;1.00;;;;;;;-145.69;100.00;71470.06;5115719;28;20201;-75
2021/12/02 05:37:41;;;;;;;2.60;1.00;;;;;;;-145.69;100.00;71454.13;5115455;28;20560;-75
2021/12/02 05:40:09;;;;;;;3.80;1.03;;;;;;;-145.69;100.00;71450.16;5115801;28;20198;-75
2021/12/02 05:42:37;;;;;;;4.53;1.40;;;;;;;-145.69;100.00;71442.19;5115684;28;20202;-74
2021/12/02 05:45:06;;;;;;;2.33;1.23;;;;;;;-145.69;100.00;71446.16;5115468;28;20744;-75
2021/12/02 05:47:32;;;;;;;2.70;0.97;;;;;;;-145.69;100.00;71442.19;5115543;28;20306;-74
2021/12/02 05:49:59;;;;;;;5.60;1.10;;;;;;;-145.69;100.00;71440.19;5115421;28;20287;-75
2021/12/02 05:52:25;;;;;;;2.40;1.37;;;;;;;-145.69;100.00;71436.22;5115511;28;20208;-74
2021/12/02 05:54:52;;;;;;;5.10;1.07;;;;;;;-145.69;100.00;71434.22;5115481;28;20204;-74
2021/12/02 05:57:19;;;;;;;6.30;1.57;;;;;;;-145.69;100.00;71430.25;5115305;28;20232;-75
2021/12/02 05:59:46;;;;;;;5.87;1.27;;;;;;;-145.69;100.00;71434.22;5115392;28;20266;-75
2021/12/02 06:02:14;;;;;;;3.17;0.90;;;;;;;-145.69;100.00;71434.22;5115174;28;20197;-74
2021/12/02 06:04:42;;;;;;;2.33;1.20;;;;;;;-145.69;100.00;71432.25;5115148;28;20545;-74
2021/12/02 06:07:08;;;;;;;2.97;1.40;;;;;;;-145.69;100.00;71436.22;5115292;28;20197;-75
2021/12/02 06:09:35;;;;;;;1.40;0.97;;;;;;;-145.69;100.00;71432.25;5115225;28;20193;-74
2021/12/02 06:12:02;;;;;;;4.20;1.40;;;;;;;-145.69;100.00;71432.25;5115332;28;20197;-75
2021/12/02 06:14:28;;;;;;;2.00;1.10;;;;;;;-145.69;100.00;71430.25;5115035;28;20197;-75
2021/12/02 06:16:55;;;;;;;3.93;1.27;;;;;;;-145.69;100.00;71428.25;5114952;28;20200;-75
2021/12/02 06:19:23;;;;;;;5.20;1.13;;;;;;;-145.69;100.00;71426.28;5114857;28;20202;-75
2021/12/02 06:21:51;;;;;;;2.10;1.20;;;;;;;-145.69;100.00;71422.28;5074425;28;20203;-75
2021/12/02 06:24:17;;;;;;;3.90;1.03;;;;;;;-145.69;100.00;71430.25;5074361;28;20297;-74
2021/12/02 06:26:44;;;;;;;1.50;0.80;;;;;;;-145.69;100.00;71418.31;5074034;28;20262;-75
2021/12/02 06:29:10;;;;;;;3.70;0.90;;;;;;;-145.69;100.00;71426.28;5074636;28;20199;-75
2021/12/02 06:31:37;;;;;;;2.77;0.83;;;;;;;-145.69;100.00;71420.31;5073947;28;20252;-75
2021/12/02 06:34:03;;;;;;;1.40;1.00;;;;;;;-145.69;100.00;71426.28;5074272;28;20195;-75
2021/12/02 06:36:31;;;;;;;4.13;1.03;;;;;;;-145.69;100.00;71414.34;5074210;28;20295;-75
2021/12/02 06:38:58;;;;;;;3.37;1.60;;;;;;;-145.69;100.00;71420.31;5074205;28;20199;-75
2021/12/02 06:41:24;;;;;;;4.20;1.17;;;;;;;-145.69;100.00;71420.31;5073643;28;20202;-75
2021/12/02 06:43:51;;;;;;;2.50;1.00;;;;;;;-145.69;100.00;71428.25;5073849;28;20202;-75
2021/12/02 06:46:17;;;;;;;2.93;1.13;;;;;;;-145.69;100.00;71426.28;5073662;28;20230;-75
2021/12/02 06:48:44;;;;;;;4.40;1.37;;;;;;;-145.69;100.00;71426.28;5074020;28;20202;-75
2021/12/02 06:51:13;;;;;;;3.07;1.67;;;;;;;-145.69;100.00;71422.28;5073902;28;20222;-75
2021/12/02 06:53:41;;;;;;;5.20;2.13;;;;;;;-145.69;100.00;71418.31;5073796;28;20203;-75
2021/12/02 06:56:07;;;;;;;3.37;1.67;;;;;;;-145.69;100.00;71422.28;5073412;28;20202;-75
2021/12/02 06:58:34;;;;;;;5.13;1.70;;;;;;;-145.69;100.00;71414.34;5073615;28;20203;-75
2021/12/02 07:01:00;;;;;;;15.77;4.13;;;;;;;-145.69;100.00;71416.31;5073396;28;20203;-75
2021/12/02 07:03:27;;;;;;;34.33;9.07;;;;;;;-145.69;100.00;71412.34;5073668;28;20194;-75
2021/12/02 07:05:53;;;;;;;40.30;11.83;;;;;;;-145.69;100.00;71418.31;5073527;28;20226;-75
2021/12/02 07:08:21;;;;;;;15.07;4.00;;;;;;;-145.69;100.00;71414.34;5073660;28;20207;-75
2021/12/02 07:10:50;;;;;;;3.20;1.33;;;;;;;-145.69;100.00;71420.31;5075542;28;20199;-75
2021/12/02 07:13:16;;;;;;;3.23;1.30;;;;;;;-145.69;100.00;71418.31;5072822;28;20198;-75
2021/12/02 07:15:46;;;;;;;1.47;1.00;;;;;;;-145.69;100.00;71418.31;5073260;28;20194;-75
2021/12/02 07:18:14;;;;;;;1.97;1.17;;;;;;;-145.69;100.00;71418.31;5073520;28;20195;-75
2021/12/02 07:20:41;;;;;;;4.13;1.43;;;;;;;-145.69;100.00;71408.38;5094468;28;20324;-75
2021/12/02 07:23:08;;;;;;;1.97;1.33;;;;;;;-145.69;100.00;71408.38;5113866;28;20219;-75
2021/12/02 07:25:35;;;;;;;3.07;1.20;;;;;;;-145.69;100.00;71408.38;5113589;28;20841;-75
2021/12/02 07:28:03;;;;;;;2.87;1.10;;;;;;;-145.69;100.00;71404.38;5113594;28;20197;-76
2021/12/02 07:30:30;;;;;;;3.60;0.90;;;;;;;-145.69;100.00;71402.41;5113758;28;20201;-76
2021/12/02 07:32:59;;;;;;;3.60;0.80;;;;;;;-145.69;100.00;71406.38;5113824;28;20295;-76
2021/12/02 07:35:26;;;;;;;3.50;1.00;;;;;;;-145.69;100.00;71402.41;5113669;28;20193;-76
2021/12/02 07:37:55;;;;;;;2.27;0.90;;;;;;;-145.69;100.00;71406.38;5113703;28;20598;-75
2021/12/02 07:40:22;;;;;;;2.50;0.93;;;;;;;-145.69;100.00;71392.44;5113423;28;20685;-75
2021/12/02 07:42:52;;;;;;;1.23;0.60;;;;;;;-145.69;100.00;71402.41;5113654;28;20197;-75
2021/12/02 07:45:21;;;;;;;2.07;1.00;;;;;;;-145.69;100.00;71420.31;5113466;28;20201;-75
2021/12/02 07:47:48;;;;;;;1.57;0.90;;;;;;;-145.69;100.00;71440.19;5113494;28;20208;-75
2021/12/02 07:50:16;;;;;;;2.00;1.20;;;;;;;-145.69;100.00;71487.97;5113360;28;20555;-75
2021/12/02 07:52:46;;;;;;;1.13;0.90;;;;;;;-145.69;100.00;71533.72;5112628;28;20197;-75
2021/12/02 07:55:14;;;;;;;1.17;0.90;;;;;;;-145.69;100.00;71561.59;5113201;28;20673;-74
2021/12/02 07:57:43;;;;;;;1.33;0.80;;;;;;;-145.69;100.00;71585.47;5113490;28;20202;-74
2021/12/02 08:00:11;;;;;;;2.23;0.70;;;;;;;-145.69;100.00;71573.53;5113150;28;20739;-74
2021/12/02 08:02:42;;;;;;;0.70;0.70;;;;;;;-145.69;100.00;71585.47;5113295;28;20208;-74
2021/12/02 08:05:09;;;;;;;1.67;0.73;;;;;;;-145.69;100.00;71593.44;5113271;28;20197;-74
2021/12/02 08:07:39;;;;;;;1.90;0.80;;;;;;;-145.69;100.00;71603.38;5113022;28;20229;-74
2021/12/02 08:10:06;;;;;;;1.00;0.90;;;;;;;-145.69;100.00;71605.38;5113332;28;20632;-74
2021/12/02 08:12:33;;;;;;;1.20;1.10;;;;;;;-145.69;100.00;71585.47;5113013;28;20525;-74
2021/12/02 08:15:02;;;;;;;1.97;1.47;;;;;;;-145.69;100.00;71571.53;5112684;28;20588;-74
2021/12/02 08:17:28;;;;;;;2.40;1.27;;;;;;;-145.69;100.00;71565.56;5113027;28;20644;-75
2021/12/02 08:19:56;;;;;;;10.03;4.33;;;;;;;-145.69;100.00;71549.66;5112905;28;20237;-74
2021/12/02 08:22:23;;;;;;;6.73;3.60;;;;;;;-145.69;100.00;71545.66;5113017;28;20205;-74
2021/12/02 08:24:49;;;;;;;13.93;5.67;;;;;;;-145.69;100.00;71535.72;5113234;28;20202;-74
2021/12/02 08:27:16;;;;;;;4.97;2.63;;;;;;;-145.69;100.00;71531.75;5112947;28;20694;-74
2021/12/02 08:29:42;;;;;;;8.33;2.27;;;;;;;-145.69;100.00;71517.81;5113075;28;20214;-74
2021/12/02 08:32:09;;;;;;;11.77;6.50;;;;;;;-145.69;100.00;71501.88;5113012;28;20686;-74
2021/12/02 08:34:36;;;;;;;10.40;5.27;;;;;;;-145.69;100.00;71470.06;5112883;28;20765;-74
2021/12/02 08:37:04;;;;;;;7.23;2.90;;;;;;;-145.69;100.00;71454.13;5113032;28;20197;-74
2021/12/02 08:39:31;;;;;;;7.20;2.27;;;;;;;-145.69;100.00;71438.22;5113153;28;20228;-74
2021/12/02 08:41:59;;;;;;;7.53;2.73;;;;;;;-145.69;100.00;71422.28;5113011;28;20202;-74
2021/12/02 08:44:29;;;;;;;9.20;2.57;;;;;;;-145.69;100.00;71392.44;5112956;28;20194;-75
2021/12/02 08:46:56;;;;;;;3.57;1.77;;;;;;;-145.69;100.00;71380.50;5112834;28;20225;-75
2021/12/02 08:49:23;;;;;;;3.23;1.80;;;;;;;-145.69;100.00;71384.47;5112984;28;20650;-75
2021/12/02 08:51:49;;;;;;;8.07;2.07;;;;;;;-145.69;100.00;71366.56;5113006;28;20247;-74
2021/12/02 08:54:17;;;;;;;6.97;1.70;;;;;;;-145.69;100.00;71356.63;5112969;28;20201;-75
2021/12/02 08:56:44;;;;;;;4.57;1.73;;;;;;;-145.69;100.00;71366.56;5112786;28;20197;-74
2021/12/02 08:59:11;;;;;;;5.93;1.60;;;;;;;-145.69;100.00;71358.63;5112557;28;20208;-75
2021/12/02 09:01:37;;;;;;;4.03;1.40;;;;;;;-145.69;100.00;71362.59;5112603;28;20201;-75
2021/12/02 09:04:04;;;;;;;3.83;1.30;;;;;;;-145.69;100.00;71374.53;5115206;28;20201;-75
2021/12/02 09:06:31;;;;;;;3.90;1.40;;;;;;;-145.69;100.00;71378.50;5115264;28;20482;-75
2021/12/02 09:09:00;;;;;;;1.23;1.00;;;;;;;-145.69;100.00;71380.50;5116212;28;20258;-74
2021/12/02 09:11:31;;;;;;;3.37;1.00;;;;;;;-145.69;100.00;71380.50;5118728;27;20297;-75
2021/12/02 09:13:58;;;;;;;1.07;0.80;;;;;;;-145.69;100.00;71376.53;5116305;28;20220;-75
2021/12/02 09:16:25;;;;;;;2.23;0.83;;;;;;;-145.69;100.00;71374.53;5116095;28;20563;-75
2021/12/02 09:18:52;;;;;;;2.80;1.03;;;;;;;-145.69;100.00;71376.53;5116342;28;20204;-75
2021/12/02 09:21:21;;;;;;;4.60;1.40;;;;;;;-145.69;100.00;71374.53;5115914;28;20302;-76
2021/12/02 09:23:48;;;;;;;3.23;1.00;;;;;;;-145.69;100.00;71378.50;5116101;28;20217;-75
2021/12/02 09:26:15;;;;;;;3.03;0.93;;;;;;;-145.69;100.00;71386.47;5116132;28;20802;-75
2021/12/02 09:28:43;;;;;;;1.87;0.90;;;;;;;-145.69;100.00;71392.44;5116418;28;20201;-75
2021/12/02 09:31:10;;;;;;;2.80;0.83;;;;;;;-145.69;100.00;71400.41;5116367;28;20709;-75
2021/12/02 09:33:36;;;;;;;4.10;1.17;;;;;;;-145.69;100.00;71402.41;5115805;28;20193;-75
2021/12/02 09:36:03;;;;;;;2.67;1.47;;;;;;;-145.69;100.00;71402.41;5115823;28;20201;-74
2021/12/02 09:38:29;;;;;;;1.60;1.00;;;;;;;-145.69;100.00;71398.41;5115802;28;20197;-74
2021/12/02 09:40:56;;;;;;;1.93;1.23;;;;;;;-145.69;100.00;71378.50;5115691;28;20197;-75
2021/12/02 09:43:22;;;;;;;3.13;1.40;;;;;;;-145.69;100.00;71368.56;5115667;28;20201;-71
2021/12/02 09:45:50;;;;;;;1.63;1.07;;;;;;;-145.69;100.00;71370.56;5115679;28;20197;-75
2021/12/02 09:48:17;;;;;;;4.13;1.23;;;;;;;-145.69;100.00;71370.56;5115555;28;20229;-75
2021/12/02 09:50:53;;;;;;;4.80;1.23;;;;;;;-145.69;100.00;71358.63;5115730;28;20197;-75
2021/12/02 09:53:23;;;;;;;1.90;1.03;;;;;;;-145.69;100.00;71354.63;5115386;28;20250;-75
2021/12/02 09:56:03;;;;;;;2.20;0.83;;;;;;;-145.69;100.00;71346.69;5115247;28;20252;-75
2021/12/02 09:58:30;;;;;;;2.83;1.80;;;;;;;-145.69;100.00;71334.75;5115346;28;20656;-75
2021/12/02 10:01:02;;;;;;;2.50;1.00;;;;;;;-145.69;100.00;71322.81;5115409;28;20205;-75
2021/12/02 10:03:33;;;;;;;14.83;5.30;;;;;;;-145.69;100.00;71302.91;5115261;28;20656;-75
2021/12/02 10:06:05;;;;;;;2.87;1.53;;;;;;;-145.69;100.00;71275.03;5115268;28;20208;-75
2021/12/02 10:08:38;;;;;;;1.53;1.20;;;;;;;-145.69;100.00;71247.19;5115064;28;20660;-76
2021/12/02 10:11:06;;;;;;;1.00;0.80;;;;;;;-145.69;100.00;71229.28;5115306;28;20301;-75
2021/12/02 10:13:37;;;;;;;1.43;1.17;;;;;;;-145.69;100.00;71183.50;5115163;28;20201;-75
2021/12/02 10:16:10;;;;;;;1.13;0.93;;;;;;;-145.69;100.00;71189.47;5113866;27;20298;-76
2021/12/02 10:18:43;;;;;;;2.33;0.50;;;;;;;-145.69;100.00;71199.44;5114845;27;20249;-75
2021/12/02 10:21:18;;;;;;;1.50;0.80;;;;;;;-145.69;100.00;71231.28;5114453;28;20241;-76
2021/12/02 10:23:47;;;;;;;1.13;0.80;;;;;;;-145.69;100.00;71245.19;5114735;28;20659;-75
2021/12/02 10:26:18;;;;;;;0.70;0.70;;;;;;;-145.69;100.00;71255.16;5114581;28;20633;-75
2021/12/02 10:28:45;;;;;;;0.90;0.67;;;;;;;-145.69;100.00;71253.16;5114951;28;20233;-76
2021/12/02 10:31:23;;;;;;;1.27;0.70;;;;;;;-145.69;100.00;71243.22;5114616;28;20213;-76
2021/12/02 10:33:54;;;;;;;1.10;1.00;;;;;;;-145.69;100.00;71249.19;5114751;28;20211;-76
2021/12/02 10:36:27;;;;;;;1.17;0.90;;;;;;;-145.69;100.00;71290.97;5114668;28;20201;-75
2021/12/02 10:38:55;;;;;;;1.07;0.70;;;;;;;-145.69;100.00;71283.00;5114664;28;20280;-75
2021/12/02 10:41:24;;;;;;;2.13;0.80;;;;;;;-145.69;100.00;71292.94;5114440;28;20201;-75
2021/12/02 10:44:17;;;;;;;0.93;0.70;;;;;;;-145.69;100.00;71292.94;5114339;28;20284;-76
2021/12/02 10:47:02;;;;;;;2.47;0.97;;;;;;;-145.69;100.00;71288.97;5114379;28;20232;-76
2021/12/02 10:49:31;;;;;;;2.17;0.87;;;;;;;-145.69;100.00;71286.97;5114323;28;20644;-76
2021/12/02 10:52:00;;;;;;;0.90;0.80;;;;;;;-145.69;100.00;71304.91;5114147;28;20242;-76
2021/12/02 10:54:29;;;;;;;1.40;0.80;;;;;;;-145.69;100.00;71304.91;5114289;27;20201;-76
2021/12/02 10:56:58;;;;;;;3.97;2.53;;;;;;;-145.69;100.00;71292.94;5114409;28;20564;-76
2021/12/02 10:59:28;;;;;;;1.93;1.00;;;;;;;-145.69;100.00;71296.94;5114161;28;20223;-77
2021/12/02 11:01:55;;;;;;;1.40;0.80;;;;;;;-145.69;100.00;71294.94;5114122;28;20202;-76
2021/12/02 11:04:23;;;;;;;1.73;0.90;;;;;;;-145.69;100.00;71304.91;5114194;28;20197;-76
2021/12/02 11:06:53;;;;;;;1.40;0.87;;;;;;;-145.69;100.00;71300.91;5116396;27;20232;-76
2021/12/02 11:09:26;;;;;;;3.97;0.90;;;;;;;-145.69;100.00;71300.91;5114293;28;20215;-76
2021/12/02 11:12:18;;;;;;;1.17;0.90;;;;;;;-145.69;100.00;71292.94;5113934;28;20712;-76
2021/12/02 11:15:07;;;;;;;3.40;1.17;;;;;;;-145.69;100.00;71300.91;5114112;28;20275;-76
2021/12/02 11:17:38;;;;;;;0.77;0.77;;;;;;;-145.69;100.00;71298.94;5110773;28;20688;-76
2021/12/02 11:20:09;;;;;;;2.37;0.80;;;;;;;-145.69;100.00;71304.91;5114049;28;20228;-76
2021/12/02 11:22:36;;;;;;;1.23;1.00;;;;;;;-145.69;100.00;71302.91;5116993;28;20205;-76